Time;durP1;ratioP1;P1;durP2;ratioP2;P2;SDS_P1;SDS_P2;PMS_P1;PMS_P2;Temp;Humidity;BMP_temperature;BMP_pressure;BME280_temperature;BME280_humidity;BME280_pressure;Samples;Min_cycle;Max_cycle;Signal;HPM_P1;HPM_P2
2023/07/25 00:00:27;;;;;;;11.85;4.93;;;12.00;99.90;;;;;;5119508;27;20051;-75
2023/07/25 00:02:53;;;;;;;9.45;4.40;;;12.00;99.90;;;;;;5120527;27;20102;-73
2023/07/25 00:05:18;;;;;;;15.32;4.75;;;12.00;99.90;;;;;;5119783;27;20051;-73
2023/07/25 00:07:44;;;;;;;17.38;4.45;;;12.00;99.90;;;;;;5103257;27;20050;-73
2023/07/25 00:10:10;;;;;;;11.32;3.88;;;12.00;99.90;;;;;;5119719;27;20130;-74
2023/07/25 00:12:36;;;;;;;14.05;4.15;;;12.00;99.90;;;;;;5120054;27;20071;-73
2023/07/25 00:15:03;;;;;;;12.15;4.10;;;12.00;99.90;;;;;;5119800;27;20050;-74
2023/07/25 00:17:28;;;;;;;18.02;4.05;;;12.00;99.90;;;;;;5137878;27;20083;-73
2023/07/25 00:19:54;;;;;;;9.25;3.50;;;12.10;99.90;;;;;;5153977;27;20432;-73
2023/07/25 00:22:20;;;;;;;10.45;3.70;;;12.10;99.90;;;;;;5137668;27;20066;-73
2023/07/25 00:24:45;;;;;;;11.48;4.13;;;12.10;99.90;;;;;;5119481;27;20092;-73
2023/07/25 00:27:11;;;;;;;9.45;4.18;;;12.10;99.90;;;;;;5119111;27;20130;-74
2023/07/25 00:29:37;;;;;;;8.30;4.10;;;12.10;99.90;;;;;;5137742;27;20046;-73
2023/07/25 00:32:03;;;;;;;14.93;3.60;;;12.10;99.90;;;;;;5137639;27;20082;-74
2023/07/25 00:34:29;;;;;;;13.95;3.95;;;12.00;99.90;;;;;;5103200;27;20486;-73
2023/07/25 00:36:54;;;;;;;12.77;4.07;;;12.00;99.90;;;;;;5137535;27;20051;-74
2023/07/25 00:39:20;;;;;;;11.68;4.43;;;11.90;99.90;;;;;;5103056;27;20051;-73
2023/07/25 00:41:46;;;;;;;13.05;4.35;;;11.90;99.90;;;;;;5119185;27;20200;-72
2023/07/25 00:44:11;;;;;;;16.02;4.30;;;11.80;99.90;;;;;;5136330;27;20436;-72
2023/07/25 00:46:37;;;;;;;11.70;3.40;;;11.80;99.90;;;;;;5118654;27;20042;-73
2023/07/25 00:49:05;;;;;;;9.60;3.88;;;11.80;99.90;;;;;;5119045;27;20043;-73
2023/07/25 00:51:32;;;;;;;14.23;4.65;;;11.80;99.90;;;;;;5119856;27;20451;-73
2023/07/25 00:53:57;;;;;;;9.50;3.88;;;11.70;99.90;;;;;;5136924;27;20479;-74
2023/07/25 00:56:24;;;;;;;10.95;3.78;;;11.70;99.90;;;;;;5102818;27;20062;-73
2023/07/25 00:58:49;;;;;;;11.48;4.30;;;11.70;99.90;;;;;;5137631;27;20526;-73
2023/07/25 01:01:15;;;;;;;11.43;4.40;;;11.60;99.90;;;;;;5118277;27;20138;-74
2023/07/25 01:03:41;;;;;;;12.60;3.75;;;11.60;99.90;;;;;;5136370;27;20406;-73
2023/07/25 01:06:14;;;;;;;9.60;3.73;;;11.50;99.90;;;;;;5137462;27;20035;-74
2023/07/25 01:08:54;;;;;;;16.63;3.90;;;11.50;99.90;;;;;;5119342;27;20379;-73
2023/07/25 01:11:22;;;;;;;9.40;3.60;;;11.50;99.90;;;;;;5135799;27;20046;-73
2023/07/25 01:13:49;;;;;;;17.67;4.15;;;11.40;99.90;;;;;;5137327;27;20043;-73
2023/07/25 01:16:19;;;;;;;13.18;4.13;;;11.40;99.90;;;;;;5118616;27;20391;-73
2023/07/25 01:18:46;;;;;;;10.93;3.45;;;11.40;99.90;;;;;;5137568;27;20043;-72
2023/07/25 01:21:12;;;;;;;10.05;3.95;;;11.40;99.90;;;;;;5119341;27;20058;-73
2023/07/25 01:23:38;;;;;;;12.90;4.25;;;11.30;99.90;;;;;;5135888;27;20088;-72
2023/07/25 01:26:05;;;;;;;9.20;3.85;;;11.30;99.90;;;;;;5118353;27;20506;-73
2023/07/25 01:28:31;;;;;;;13.45;3.90;;;11.30;99.90;;;;;;5085229;27;20055;-73
2023/07/25 01:30:57;;;;;;;11.77;3.63;;;11.20;99.90;;;;;;5101661;27;20047;-73
2023/07/25 01:33:23;;;;;;;14.48;3.63;;;11.20;99.90;;;;;;5118766;27;20428;-73
2023/07/25 01:35:49;;;;;;;10.18;3.92;;;11.20;99.90;;;;;;5136370;27;20436;-73
2023/07/25 01:38:15;;;;;;;12.07;3.72;;;11.10;99.90;;;;;;5136328;27;20050;-74
2023/07/25 01:40:41;;;;;;;13.48;3.85;;;11.10;99.90;;;;;;5136014;27;20375;-73
2023/07/25 01:43:08;;;;;;;14.10;4.13;;;11.10;99.90;;;;;;5135963;27;20487;-73
2023/07/25 01:45:33;;;;;;;9.68;3.80;;;11.10;99.90;;;;;;5136043;27;20487;-73
2023/07/25 01:47:59;;;;;;;13.88;3.53;;;11.10;99.90;;;;;;5101098;27;20043;-73
2023/07/25 01:50:26;;;;;;;10.00;3.72;;;11.00;99.90;;;;;;5136101;27;20050;-74
2023/07/25 01:52:52;;;;;;;10.32;4.05;;;11.00;99.90;;;;;;5118553;27;20047;-73
2023/07/25 01:55:17;;;;;;;10.75;3.70;;;11.00;99.90;;;;;;5136004;27;20490;-73
2023/07/25 01:57:43;;;;;;;13.38;3.60;;;11.00;99.90;;;;;;5135025;27;20132;-73
2023/07/25 02:00:10;;;;;;;12.95;3.47;;;11.00;99.90;;;;;;5117509;27;20074;-74
2023/07/25 02:02:35;;;;;;;12.13;3.70;;;10.90;99.90;;;;;;5101471;27;20179;-73
2023/07/25 02:05:01;;;;;;;16.90;3.83;;;11.00;99.90;;;;;;5117417;27;20126;-74
2023/07/25 02:07:27;;;;;;;12.30;4.07;;;10.90;99.90;;;;;;5135608;27;20093;-73
2023/07/25 02:09:52;;;;;;;13.02;4.03;;;10.90;99.90;;;;;;5152581;27;20043;-74
2023/07/25 02:12:18;;;;;;;14.57;4.55;;;11.00;99.90;;;;;;5152314;27;20051;-74
2023/07/25 02:14:44;;;;;;;13.15;3.85;;;11.10;99.90;;;;;;5116600;27;20134;-74
2023/07/25 02:17:10;;;;;;;12.55;4.05;;;11.10;99.90;;;;;;5117240;27;20092;-73
2023/07/25 02:19:36;;;;;;;16.55;5.05;;;11.20;99.90;;;;;;5135750;27;20047;-73
2023/07/25 02:22:01;;;;;;;12.55;4.38;;;11.20;99.90;;;;;;5117983;27;20126;-73
2023/07/25 02:24:27;;;;;;;16.30;4.07;;;11.30;99.90;;;;;;5100671;27;20043;-74
2023/07/25 02:26:53;;;;;;;13.38;3.97;;;11.30;99.90;;;;;;5117048;27;20372;-73
2023/07/25 02:29:18;;;;;;;11.38;3.85;;;11.40;99.90;;;;;;5117132;27;20051;-73
2023/07/25 02:31:44;;;;;;;9.98;3.70;;;11.40;99.90;;;;;;5116956;27;20043;-73
2023/07/25 02:34:10;;;;;;;11.30;3.90;;;11.40;99.90;;;;;;5117970;27;20043;-72
2023/07/25 02:36:35;;;;;;;12.20;3.88;;;11.50;99.90;;;;;;5083122;27;20047;-72
2023/07/25 02:39:01;;;;;;;10.32;3.92;;;11.60;99.90;;;;;;5135169;27;20066;-73
2023/07/25 02:41:27;;;;;;;11.57;4.10;;;11.60;99.90;;;;;;5099718;27;20043;-73
2023/07/25 02:43:52;;;;;;;14.23;4.47;;;11.60;99.90;;;;;;5116818;27;20110;-73
2023/07/25 02:46:18;;;;;;;13.85;4.13;;;11.60;99.90;;;;;;5116427;27;20122;-73
2023/07/25 02:48:44;;;;;;;11.32;4.10;;;11.60;99.90;;;;;;5133934;27;20054;-73
2023/07/25 02:51:09;;;;;;;10.57;3.78;;;11.70;99.90;;;;;;5134608;27;20489;-74
2023/07/25 02:53:35;;;;;;;11.80;3.60;;;11.60;99.90;;;;;;5134593;27;20125;-73
2023/07/25 02:56:01;;;;;;;10.77;3.40;;;11.60;99.90;;;;;;5134810;27;20130;-73
2023/07/25 02:58:26;;;;;;;11.93;3.80;;;11.70;99.90;;;;;;5134469;27;20076;-75
2023/07/25 03:00:52;;;;;;;14.68;3.88;;;11.70;99.90;;;;;;5112899;28;20059;-73
2023/07/25 03:03:18;;;;;;;11.60;3.80;;;11.70;99.90;;;;;;5113012;28;20395;-73
2023/07/25 03:05:43;;;;;;;8.80;3.50;;;11.70;99.90;;;;;;5078691;28;20490;-73
2023/07/25 03:08:09;;;;;;;10.23;3.30;;;11.70;99.90;;;;;;5114162;28;20059;-74
2023/07/25 03:10:35;;;;;;;11.88;3.78;;;11.70;99.90;;;;;;5095980;28;20044;-73
2023/07/25 03:13:01;;;;;;;11.32;3.45;;;11.70;99.90;;;;;;5113929;28;20043;-74
2023/07/25 03:15:26;;;;;;;12.70;4.75;;;11.70;99.90;;;;;;5112829;28;20055;-74
2023/07/25 03:17:54;;;;;;;13.98;3.83;;;11.70;99.90;;;;;;5114467;28;20055;-73
2023/07/25 03:20:19;;;;;;;12.20;3.53;;;11.80;99.90;;;;;;5114547;28;20052;-73
2023/07/25 03:22:45;;;;;;;11.15;3.28;;;11.70;99.90;;;;;;5113894;28;20395;-73
2023/07/25 03:25:11;;;;;;;9.85;3.38;;;11.80;99.90;;;;;;5112590;28;20044;-73
2023/07/25 03:27:37;;;;;;;11.32;3.60;;;11.80;99.90;;;;;;5113096;28;20036;-74
2023/07/25 03:30:04;;;;;;;10.30;3.22;;;11.80;99.90;;;;;;5113964;28;20122;-73
2023/07/25 03:32:29;;;;;;;13.43;3.90;;;11.80;99.90;;;;;;5112661;28;20148;-73
2023/07/25 03:34:55;;;;;;;8.82;3.88;;;11.80;99.90;;;;;;5112518;28;20086;-72
2023/07/25 03:37:21;;;;;;;12.02;3.53;;;11.80;99.90;;;;;;5113822;28;20083;-73
2023/07/25 03:39:47;;;;;;;15.30;3.97;;;11.90;99.90;;;;;;5113489;28;20392;-72
2023/07/25 03:42:13;;;;;;;8.75;3.15;;;11.90;99.90;;;;;;5112723;28;20082;-74
2023/07/25 03:44:38;;;;;;;11.93;3.97;;;12.00;99.90;;;;;;5096476;28;20065;-73
2023/07/25 03:47:04;;;;;;;15.35;3.80;;;12.00;99.90;;;;;;5113693;28;20126;-73
2023/07/25 03:49:30;;;;;;;18.52;3.92;;;12.00;99.90;;;;;;5112483;28;20048;-73
2023/07/25 03:51:56;;;;;;;9.68;3.63;;;12.00;99.90;;;;;;5113497;28;20043;-73
2023/07/25 03:54:23;;;;;;;9.88;3.22;;;12.10;99.90;;;;;;5113274;28;20115;-73
2023/07/25 03:56:50;;;;;;;13.68;3.70;;;12.10;99.90;;;;;;5096159;28;20055;-72
2023/07/25 03:59:17;;;;;;;;;;;12.10;99.90;;;;;;5113610;28;20421;-72
2023/07/25 04:01:42;;;;;;;11.15;3.65;;;12.20;99.90;;;;;;5112414;28;19934;-72
2023/07/25 04:04:08;;;;;;;10.45;3.97;;;12.20;99.90;;;;;;5095716;28;20395;-72
2023/07/25 04:06:34;;;;;;;11.77;3.58;;;12.20;99.90;;;;;;5113500;28;20127;-72
2023/07/25 04:08:59;;;;;;;8.45;3.83;;;12.20;99.90;;;;;;5112762;28;20046;-72
2023/07/25 04:11:25;;;;;;;13.93;3.92;;;12.30;99.90;;;;;;5094985;28;20127;-72
2023/07/25 04:13:51;;;;;;;10.98;3.70;;;12.30;99.90;;;;;;5112247;28;20159;-73
2023/07/25 04:16:16;;;;;;;14.43;3.95;;;12.40;99.90;;;;;;5112735;28;20475;-73
2023/07/25 04:18:42;;;;;;;15.45;4.53;;;12.40;99.90;;;;;;5112175;28;20108;-73
2023/07/25 04:21:09;;;;;;;9.55;3.70;;;12.40;99.90;;;;;;5113410;28;20079;-74
2023/07/25 04:23:35;;;;;;;10.15;3.28;;;12.50;99.90;;;;;;5113701;28;20040;-74
2023/07/25 04:26:00;;;;;;;11.07;3.55;;;12.50;99.90;;;;;;5112888;28;20050;-73
2023/07/25 04:28:26;;;;;;;13.02;3.42;;;12.60;99.90;;;;;;5096243;28;20352;-73
2023/07/25 04:30:52;;;;;;;19.33;4.30;;;12.60;99.90;;;;;;5112519;28;20107;-72
2023/07/25 04:33:17;;;;;;;10.85;3.97;;;12.70;99.90;;;;;;5113293;28;20047;-72
2023/07/25 04:35:45;;;;;;;11.85;3.15;;;12.70;99.90;;;;;;5112237;28;20039;-73
2023/07/25 04:38:12;;;;;;;12.45;3.58;;;12.70;99.90;;;;;;5113690;28;20475;-73
2023/07/25 04:40:38;;;;;;;;;;;12.80;99.90;;;;;;5116349;28;20047;-72
2023/07/25 04:43:03;;;;;;;12.23;3.50;;;12.80;99.90;;;;;;5099670;28;20252;-72
2023/07/25 04:45:29;;;;;;;14.43;3.78;;;12.80;99.90;;;;;;5116246;28;20444;-72
2023/07/25 04:47:55;;;;;;;10.13;3.85;;;12.90;99.90;;;;;;5116686;28;20078;-73
2023/07/25 04:50:20;;;;;;;12.10;4.00;;;12.90;99.90;;;;;;5116024;28;20050;-74
2023/07/25 04:52:46;;;;;;;11.23;3.65;;;13.00;99.90;;;;;;5116611;28;20067;-73
2023/07/25 04:55:12;;;;;;;11.35;3.63;;;13.00;99.90;;;;;;5115575;28;20054;-73
2023/07/25 04:57:38;;;;;;;11.48;3.85;;;13.10;99.90;;;;;;5117011;28;20043;-73
2023/07/25 05:00:05;;;;;;;10.30;4.10;;;13.20;99.90;;;;;;5114987;28;20047;-73
2023/07/25 05:02:31;;;;;;;11.95;4.28;;;13.20;99.90;;;;;;5117226;28;20382;-73
2023/07/25 05:04:57;;;;;;;10.27;3.88;;;13.30;99.90;;;;;;5115153;28;20055;-73
2023/07/25 05:07:23;;;;;;;13.18;3.70;;;13.30;99.90;;;;;;5114995;28;20051;-72
2023/07/25 05:09:49;;;;;;;13.07;4.22;;;13.30;99.90;;;;;;5116093;28;20056;-72
2023/07/25 05:12:14;;;;;;;12.95;3.85;;;13.30;99.90;;;;;;5116058;28;20067;-72
2023/07/25 05:14:41;;;;;;;8.25;3.20;;;13.30;99.90;;;;;;5115191;28;20047;-73
2023/07/25 05:17:06;;;;;;;9.30;3.85;;;13.40;99.90;;;;;;5114829;28;20040;-72
2023/07/25 05:19:32;;;;;;;9.80;3.92;;;13.40;99.90;;;;;;5114909;28;20066;-72
2023/07/25 05:21:58;;;;;;;9.90;3.70;;;13.50;99.90;;;;;;5116624;28;20044;-72
2023/07/25 05:24:25;;;;;;;12.23;3.42;;;13.60;99.90;;;;;;5116666;28;20047;-73
2023/07/25 05:26:50;;;;;;;10.73;3.38;;;13.60;99.90;;;;;;5115929;28;20043;-72
2023/07/25 05:29:16;;;;;;;16.17;3.47;;;13.70;99.90;;;;;;5114978;28;20051;-72
2023/07/25 05:31:42;;;;;;;14.27;3.45;;;13.70;99.90;;;;;;5115486;28;20042;-73
2023/07/25 05:34:07;;;;;;;13.25;3.33;;;13.80;99.90;;;;;;5098485;28;20043;-73
2023/07/25 05:36:33;;;;;;;12.73;3.90;;;13.80;99.90;;;;;;5114558;28;20051;-72
2023/07/25 05:38:59;;;;;;;12.75;3.20;;;13.90;99.90;;;;;;5114509;28;20083;-72
2023/07/25 05:41:25;;;;;;;13.43;3.20;;;13.90;99.90;;;;;;5114506;28;20051;-73
2023/07/25 05:43:50;;;;;;;12.90;3.17;;;14.00;99.90;;;;;;5080789;28;20060;-74
2023/07/25 05:46:16;;;;;;;13.45;3.28;;;13.90;99.90;;;;;;5115301;28;20040;-74
2023/07/25 05:48:42;;;;;;;10.07;3.10;;;13.90;99.90;;;;;;5115278;28;20039;-73
2023/07/25 05:51:09;;;;;;;8.30;2.83;;;13.90;99.90;;;;;;5080551;28;20101;-72
2023/07/25 05:53:35;;;;;;;11.68;2.92;;;13.90;99.90;;;;;;5115416;28;20445;-72
2023/07/25 05:56:01;;;;;;;6.18;2.50;;;13.90;99.90;;;;;;5115414;28;20432;-73
2023/07/25 05:58:28;;;;;;;9.50;2.03;;;13.90;99.90;;;;;;5097475;28;20096;-72
2023/07/25 06:00:55;;;;;;;8.85;1.77;;;13.90;99.90;;;;;;5113667;28;20056;-72
2023/07/25 06:03:21;;;;;;;15.88;2.05;;;13.90;99.90;;;;;;5115323;28;20047;-72
2023/07/25 06:05:47;;;;;;;12.63;2.20;;;13.90;99.90;;;;;;5097988;28;20376;-71
2023/07/25 06:08:13;;;;;;;9.50;1.60;;;14.00;99.90;;;;;;5114968;28;20039;-72
2023/07/25 06:10:39;;;;;;;6.47;1.70;;;14.00;99.90;;;;;;5114487;28;20047;-72
2023/07/25 06:13:05;;;;;;;11.75;1.65;;;14.00;99.90;;;;;;5115579;28;20450;-71
2023/07/25 06:15:36;;;;;;;10.20;1.80;;;14.00;99.90;;;;;;5115625;28;20379;-73
2023/07/25 06:18:02;;;;;;;9.35;1.73;;;14.10;99.90;;;;;;5114066;28;20074;-71
2023/07/25 06:20:28;;;;;;;13.52;1.45;;;14.20;99.90;;;;;;5097079;28;20056;-72
2023/07/25 06:22:54;;;;;;;13.35;1.48;;;14.20;99.90;;;;;;5096952;28;20496;-73
2023/07/25 06:25:20;;;;;;;11.43;1.50;;;14.20;99.90;;;;;;5096552;28;20146;-73
2023/07/25 06:27:46;;;;;;;10.70;1.42;;;14.20;99.90;;;;;;5114874;28;20043;-72
2023/07/25 06:30:11;;;;;;;10.07;1.30;;;14.20;99.90;;;;;;5113752;28;20039;-71
2023/07/25 06:32:37;;;;;;;8.90;1.50;;;14.30;99.90;;;;;;5113564;28;20401;-72
2023/07/25 06:35:04;;;;;;;11.63;1.65;;;14.40;99.90;;;;;;5096848;28;20065;-72
2023/07/25 06:37:32;;;;;;;10.70;1.30;;;14.40;99.90;;;;;;5114546;28;20043;-72
2023/07/25 06:40:00;;;;;;;11.13;1.25;;;14.50;99.90;;;;;;5114327;28;20193;-72
2023/07/25 06:42:28;;;;;;;11.82;1.13;;;14.50;99.90;;;;;;5114641;28;20047;-73
2023/07/25 06:44:54;;;;;;;5.97;1.00;;;14.60;99.90;;;;;;5096573;28;20144;-73
2023/07/25 06:47:20;;;;;;;10.53;1.33;;;14.60;99.90;;;;;;5079415;28;20040;-72
2023/07/25 06:49:46;;;;;;;11.90;1.50;;;14.60;99.90;;;;;;5115138;28;20369;-72
2023/07/25 06:52:11;;;;;;;9.18;1.25;;;14.70;99.90;;;;;;5096907;28;20100;-72
2023/07/25 06:54:41;;;;;;;11.07;1.23;;;14.70;99.90;;;;;;5114399;27;20079;-72
2023/07/25 06:57:07;;;;;;;7.57;1.02;;;14.80;99.90;;;;;;5114285;28;20044;-72
2023/07/25 06:59:33;;;;;;;9.52;1.00;;;14.90;99.90;;;;;;5115354;27;20051;-72
2023/07/25 07:01:58;;;;;;;9.13;1.25;;;14.90;99.90;;;;;;5116584;27;20059;-72
2023/07/25 07:04:24;;;;;;;8.25;1.00;;;15.00;99.90;;;;;;5116562;27;20043;-71
2023/07/25 07:06:50;;;;;;;6.40;0.85;;;15.10;99.90;;;;;;5134297;27;20085;-72
2023/07/25 07:09:15;;;;;;;5.85;0.90;;;15.10;99.90;;;;;;5117404;27;20051;-72
2023/07/25 07:11:41;;;;;;;9.82;0.80;;;15.10;99.90;;;;;;5099881;27;20523;-71
2023/07/25 07:14:07;;;;;;;6.47;0.52;;;15.20;99.90;;;;;;5116599;28;20043;-71
2023/07/25 07:16:33;;;;;;;7.10;0.68;;;15.30;99.90;;;;;;5150729;27;20179;-71
2023/07/25 07:18:58;;;;;;;12.60;0.70;;;15.30;99.90;;;;;;5116347;28;20059;-74
2023/07/25 07:21:24;;;;;;;5.25;0.50;;;15.30;99.90;;;;;;5134621;27;20047;-72
2023/07/25 07:23:50;;;;;;;7.78;0.80;;;15.30;99.90;;;;;;5150572;27;20371;-71
2023/07/25 07:26:16;;;;;;;7.15;1.02;;;15.40;99.90;;;;;;5098683;28;20084;-70
2023/07/25 07:28:41;;;;;;;6.45;0.57;;;15.40;99.90;;;;;;5099301;28;20047;-71
2023/07/25 07:31:12;;;;;;;7.72;0.60;;;15.50;99.90;;;;;;5116200;28;20124;-72
2023/07/25 07:33:38;;;;;;;6.25;0.68;;;15.50;99.90;;;;;;5116651;28;20138;-71
2023/07/25 07:36:04;;;;;;;6.37;0.50;;;15.50;99.90;;;;;;5116167;28;20134;-71
2023/07/25 07:38:30;;;;;;;7.35;0.63;;;15.60;99.90;;;;;;5099998;28;20051;-72
2023/07/25 07:40:56;;;;;;;6.57;1.00;;;15.80;99.90;;;;;;5082359;28;20392;-71
2023/07/25 07:43:21;;;;;;;6.28;0.60;;;15.90;99.90;;;;;;5116839;28;20039;-72
2023/07/25 07:45:48;;;;;;;5.28;0.60;;;16.00;99.90;;;;;;5134154;28;20043;-72
2023/07/25 07:48:14;;;;;;;;;;;16.10;99.90;;;;;;5116497;28;20047;-72
2023/07/25 07:50:40;;;;;;;3.90;0.37;;;16.20;99.90;;;;;;5134988;28;20308;-72
2023/07/25 07:53:05;;;;;;;2.72;0.50;;;16.20;99.90;;;;;;5116280;28;20047;-71
2023/07/25 07:55:31;;;;;;;6.63;0.38;;;16.20;99.90;;;;;;5115835;28;20471;-74
2023/07/25 07:57:57;;;;;;;4.40;0.40;;;16.20;99.90;;;;;;5099007;28;20047;-71
2023/07/25 08:00:26;;;;;;;5.03;0.30;;;16.10;99.90;;;;;;5134163;28;20055;-71
2023/07/25 08:02:52;;;;;;;7.95;0.40;;;16.20;99.90;;;;;;5150760;27;20138;-72
2023/07/25 08:05:18;;;;;;;6.53;0.50;;;16.30;99.90;;;;;;5134478;28;20573;-70
2023/07/25 08:07:44;;;;;;;6.03;0.60;;;16.60;99.90;;;;;;5134021;28;20057;-71
2023/07/25 08:10:10;;;;;;;4.68;0.57;;;16.70;99.90;;;;;;5134030;28;20122;-71
2023/07/25 08:12:36;;;;;;;6.57;0.57;;;17.00;99.90;;;;;;5134868;27;20050;-71
2023/07/25 08:15:02;;;;;;;4.53;0.40;;;17.10;99.90;;;;;;5103692;27;20053;-72
2023/07/25 08:17:28;;;;;;;3.63;0.40;;;17.20;99.90;;;;;;5102639;27;20475;-72
2023/07/25 08:19:54;;;;;;;3.50;0.30;;;17.40;99.90;;;;;;5137891;27;20045;-71
2023/07/25 08:22:20;;;;;;;4.40;0.40;;;17.50;99.90;;;;;;5102999;27;20051;-72
2023/07/25 08:24:47;;;;;;;4.67;0.30;;;17.30;99.90;;;;;;5137776;27;20083;-72
2023/07/25 08:27:13;;;;;;;2.92;0.40;;;17.20;99.90;;;;;;5137623;27;20395;-72
2023/07/25 08:29:45;;;;;;;4.25;0.40;;;17.30;99.90;;;;;;5137710;27;20121;-72
2023/07/25 08:32:11;;;;;;;3.05;0.20;;;17.40;99.90;;;;;;5119266;27;20043;-71
2023/07/25 08:34:38;;;;;;;5.68;0.30;;;17.30;99.90;;;;;;5119933;27;20075;-71
2023/07/25 08:37:04;;;;;;;;;;;17.40;99.90;;;;;;5137653;27;20483;-70
2023/07/25 08:39:30;;;;;;;4.25;0.30;;;17.60;99.90;;;;;;5153846;27;20275;-72
2023/07/25 08:41:58;;;;;;;5.95;0.30;;;17.70;99.90;;;;;;5119235;27;20047;-71
2023/07/25 08:44:25;;;;;;;6.05;0.50;;;17.90;99.90;;;;;;5120007;27;20051;-71
2023/07/25 08:46:53;;;;;;;5.53;0.43;;;17.80;99.90;;;;;;5119027;27;20046;-73
2023/07/25 08:49:23;;;;;;;5.90;0.30;;;17.70;99.90;;;;;;5137267;27;20049;-71
2023/07/25 08:51:52;;;;;;;5.93;0.30;;;17.60;99.90;;;;;;5119134;27;20039;-71
2023/07/25 08:54:36;;;;;;;4.43;0.40;;;17.50;99.90;;;;;;5137163;27;20047;-72
2023/07/25 08:57:03;;;;;;;5.50;0.50;;;17.40;99.90;;;;;;5119042;27;20054;-72
2023/07/25 08:59:30;;;;;;;4.43;0.30;;;17.60;99.90;;;;;;5153425;27;20047;-71
2023/07/25 09:01:56;;;;;;;7.90;0.50;;;17.40;99.90;;;;;;5119525;27;20055;-72
2023/07/25 09:04:24;;;;;;;4.63;0.40;;;17.50;99.90;;;;;;5137456;27;20049;-72
2023/07/25 09:06:50;;;;;;;4.35;0.40;;;17.70;99.90;;;;;;5136835;27;20107;-72
2023/07/25 09:09:16;;;;;;;4.07;0.40;;;17.70;99.90;;;;;;5136943;27;20051;-73
2023/07/25 09:11:42;;;;;;;4.90;0.40;;;17.90;99.90;;;;;;5118586;27;20391;-72
2023/07/25 09:14:08;;;;;;;5.78;0.30;;;18.10;99.90;;;;;;5136773;27;20057;-72
2023/07/25 09:16:34;;;;;;;8.60;0.50;;;18.20;99.90;;;;;;5119075;27;20134;-72
2023/07/25 09:19:00;;;;;;;2.33;0.30;;;18.30;99.90;;;;;;5118480;27;20043;-72
2023/07/25 09:21:27;;;;;;;3.60;0.20;;;18.60;99.90;;;;;;5135964;27;20056;-71
2023/07/25 09:23:54;;;;;;;4.85;0.30;;;18.30;99.90;;;;;;5118103;27;20498;-72
2023/07/25 09:26:26;;;;;;;3.80;0.30;;;18.20;99.90;;;;;;5119059;27;20070;-70
2023/07/25 09:28:54;;;;;;;4.22;0.30;;;18.30;99.90;;;;;;5136626;27;20121;-73
2023/07/25 09:31:21;;;;;;;4.22;0.40;;;18.20;99.90;;;;;;5136550;27;20055;-72
2023/07/25 09:33:49;;;;;;;4.25;0.30;;;18.10;99.90;;;;;;5136504;27;20120;-73
2023/07/25 09:36:15;;;;;;;3.55;0.38;;;18.20;99.90;;;;;;5136428;27;20076;-70
2023/07/25 09:38:49;;;;;;;4.43;0.30;;;18.30;99.90;;;;;;5118123;27;20043;-74
2023/07/25 09:41:15;;;;;;;2.83;0.40;;;18.50;99.90;;;;;;5118591;27;20043;-70
2023/07/25 09:43:41;;;;;;;5.63;0.40;;;18.60;99.90;;;;;;5101104;27;20043;-72
2023/07/25 09:46:07;;;;;;;2.53;0.30;;;18.80;99.90;;;;;;5117888;27;20046;-72
2023/07/25 09:48:33;;;;;;;3.37;0.30;;;18.80;99.90;;;;;;5117936;27;20054;-73
2023/07/25 09:50:59;;;;;;;4.32;0.45;;;18.70;99.90;;;;;;5118078;27;20054;-72
2023/07/25 09:53:24;;;;;;;3.57;0.33;;;18.60;99.90;;;;;;5136502;27;20364;-72
2023/07/25 09:55:50;;;;;;;3.47;0.40;;;18.50;99.90;;;;;;5136428;27;20039;-73
2023/07/25 09:58:16;;;;;;;6.23;0.33;;;18.40;99.90;;;;;;5118180;27;20050;-73
2023/07/25 10:00:43;;;;;;;4.83;0.43;;;18.50;99.90;;;;;;5100478;27;20125;-73
2023/07/25 10:03:11;;;;;;;3.63;0.30;;;18.40;99.90;;;;;;5135885;27;20055;-73
2023/07/25 10:05:47;;;;;;;4.70;0.40;;;18.60;99.90;;;;;;5135752;27;20047;-74
2023/07/25 10:08:16;;;;;;;2.63;0.30;;;18.80;99.90;;;;;;5118685;27;20035;-73
2023/07/25 10:10:42;;;;;;;4.32;0.40;;;19.00;99.90;;;;;;5135704;27;20043;-73
2023/07/25 10:13:09;;;;;;;2.90;0.30;;;;;;;;;;5117668;27;20051;-72
2023/07/25 10:15:35;;;;;;;;;;;;;;;;;;5136056;27;20117;-73
2023/07/25 10:18:05;;;;;;;3.60;0.40;;;;;;;;;;5135617;27;19964;-73
2023/07/25 10:20:31;;;;;;;3.58;0.30;;;;;;;;;;5100336;27;20051;-74
2023/07/25 10:23:09;;;;;;;3.60;0.30;;;;;;;;;;5117431;27;20054;-74
2023/07/25 10:25:35;;;;;;;3.40;0.20;;;;;;;;;;5135307;27;20050;-73
2023/07/25 10:28:02;;;;;;;3.78;0.30;;;;;;;;;;5135420;27;20051;-71
2023/07/25 10:30:33;;;;;;;2.08;0.25;;;;;;;;;;5117950;27;20055;-74
2023/07/25 10:33:02;;;;;;;2.42;0.20;;;;;;;;;;5118034;27;20047;-72
2023/07/25 10:35:44;;;;;;;3.67;0.30;;;;;;;;;;5134384;27;20116;-73
2023/07/25 10:38:11;;;;;;;3.80;0.38;;;;;;;;;;5117988;27;20425;-73
2023/07/25 10:40:55;;;;;;;2.85;0.40;;;;;;;;;;5135208;27;20086;-72
2023/07/25 10:43:22;;;;;;;3.42;0.45;;;;;;;;;;5135706;27;20079;-74
2023/07/25 10:45:49;;;;;;;;;;;;;;;;;;5135384;27;20043;-73
2023/07/25 10:48:34;;;;;;;3.75;0.30;;;;;;;;;;5117070;27;20397;-74
2023/07/25 10:51:06;;;;;;;2.22;0.30;;;;;;;;;;5117499;27;20049;-73
2023/07/25 10:53:33;;;;;;;3.58;0.35;;;;;;;;;;5117110;27;20073;-72
2023/07/25 10:56:07;;;;;;;6.28;0.32;;;;;;;;;;5117104;27;20454;-73
2023/07/25 10:58:38;;;;;;;4.05;0.40;;;;;;;;;;5116691;27;20130;-73
2023/07/25 11:01:04;;;;;;;3.50;0.40;;;;;;;;;;5116281;27;20055;-72
2023/07/25 11:03:34;;;;;;;3.95;0.40;;;;;;;;;;5134724;27;20047;-73
2023/07/25 11:06:06;;;;;;;3.00;0.30;;;;;;;;;;5099978;27;20043;-71
2023/07/25 11:08:42;;;;;;;4.13;0.40;;;;;;;;;;5116625;27;20148;-72
2023/07/25 11:11:12;;;;;;;6.78;0.40;;;;;;;;;;5117509;27;20078;-74
2023/07/25 11:13:39;;;;;;;4.57;0.40;;;;;;;;;;5117295;27;20047;-74
2023/07/25 11:16:07;;;;;;;3.47;0.40;;;;;;;;;;5116468;27;20047;-74
2023/07/25 11:18:33;;;;;;;2.33;0.30;;;;;;;;;;5134492;27;20053;-76
2023/07/25 11:20:59;;;;;;;6.32;0.70;;;;;;;;;;5134429;27;20043;-74
2023/07/25 11:23:25;;;;;;;5.27;0.50;;;;;;;;;;5134414;27;20051;-74
2023/07/25 11:25:55;;;;;;;5.88;0.50;;;;;;;;;;5116595;28;20075;-74
2023/07/25 11:28:21;;;;;;;2.10;0.40;;;;;;;;;;5135049;27;20078;-74
2023/07/25 11:30:48;;;;;;;9.73;0.40;;;;;;;;;;5116287;28;20043;-74
2023/07/25 11:33:14;;;;;;;2.50;0.30;;;;;;;;;;5116661;28;20070;-73
2023/07/25 11:35:40;;;;;;;4.38;0.40;;;;;;;;;;5100185;28;20055;-74
2023/07/25 11:38:06;;;;;;;5.22;0.40;;;;;;;;;;5116386;28;20130;-73
2023/07/25 11:40:32;;;;;;;2.58;0.40;;;;;;;;;;5099370;28;20055;-75
2023/07/25 11:42:58;;;;;;;5.88;0.50;;;;;;;;;;5099637;28;20055;-73
2023/07/25 11:45:24;;;;;;;5.70;0.50;;;;;;;;;;5116216;28;20068;-73
2023/07/25 11:47:51;;;;;;;2.38;0.40;;;;;;;;;;5137753;27;20276;-74
2023/07/25 11:50:20;;;;;;;7.10;0.50;;;;;;;;;;5138884;27;20043;-75
2023/07/25 11:52:47;;;;;;;5.20;0.40;;;;;;;;;;5138389;27;20124;-72
2023/07/25 11:55:13;;;;;;;3.90;0.30;;;;;;;;;;5103327;27;20051;-73
2023/07/25 11:57:41;;;;;;;4.00;0.30;;;;;;;;;;5121091;27;20096;-73
2023/07/25 12:00:15;;;;;;;4.13;0.32;;;;;;;;;;5138586;27;20483;-73
2023/07/25 12:02:42;;;;;;;4.07;0.30;;;;;;;;;;5138217;27;20062;-73
2023/07/25 12:05:28;;;;;;;2.45;0.30;;;;;;;;;;5119827;27;20055;-75
2023/07/25 12:07:58;;;;;;;;;;;;;;;;;;5154765;27;20533;-74
2023/07/25 12:10:27;;;;;;;3.65;0.20;;;;;;;;;;5138960;27;20006;-74
2023/07/25 12:12:57;;;;;;;3.05;0.30;;;;;;;;;;5119653;27;20475;-72
2023/07/25 12:15:24;;;;;;;3.38;0.30;;;;;;;;;;5119884;27;20043;-72
2023/07/25 12:17:50;;;;;;;6.25;0.35;;;;;;;;;;5119959;27;20483;-73
2023/07/25 12:20:20;;;;;;;3.33;0.30;;;;;;;;;;5137931;27;20047;-71
2023/07/25 12:22:47;;;;;;;3.75;0.30;;;;;;;;;;5137912;27;20043;-68
2023/07/25 12:25:19;;;;;;;3.60;0.40;;;;;;;;;;5119450;27;20051;-71
2023/07/25 12:27:46;;;;;;;4.35;0.43;;;;;;;;;;5120070;27;20050;-73
2023/07/25 12:30:12;;;;;;;4.38;0.40;;;;;;;;;;5119730;27;20039;-72
2023/07/25 12:32:38;;;;;;;5.88;0.30;;;;;;;;;;5119704;27;20043;-73
2023/07/25 12:35:04;;;;;;;4.70;0.40;;;;;;;;;;5120305;27;20126;-73
2023/07/25 12:37:30;;;;;;;2.85;0.38;;;;;;;;;;5102464;27;20057;-72
2023/07/25 12:39:57;;;;;;;6.43;0.40;;;;;;;;;;5137545;27;20046;-71
2023/07/25 12:42:23;;;;;;;7.10;0.73;;;;;;;;;;5119278;27;20050;-73
2023/07/25 12:44:49;;;;;;;5.43;0.68;;;;;;;;;;5119389;27;20047;-73
2023/07/25 12:47:15;;;;;;;6.73;0.50;;;;;;;;;;5119142;27;20042;-73
2023/07/25 12:49:41;;;;;;;5.23;0.60;;;;;;;;;;5102139;27;20288;-72
2023/07/25 12:52:07;;;;;;;6.70;0.40;;;;;;;;;;5137346;27;20636;-69
2023/07/25 12:54:36;;;;;;;2.53;0.55;;;;;;;;;;5119595;27;20281;-73
2023/07/25 12:57:02;;;;;;;4.78;0.50;;;;;;;;;;5137095;27;20509;-74
2023/07/25 12:59:28;;;;;;;3.67;0.40;;;;;;;;;;5136581;27;20499;-73
2023/07/25 13:01:55;;;;;;;7.45;0.40;;;;;;;;;;5118724;27;20142;-73
2023/07/25 13:04:21;;;;;;;6.70;0.40;;;;;;;;;;5102034;27;20043;-70